sensor_id;sensor_type;location;lat;lon;timestamp;temperature;humidity
19232;DHT22;9750;48.730;10.294;2023-02-01T00:00:31;4.10;99.90
19232;DHT22;9750;48.730;10.294;2023-02-01T00:03:01;4.10;99.90
19232;DHT22;9750;48.730;10.294;2023-02-01T00:05:28;4.10;99.90
19232;DHT22;9750;48.730;10.294;2023-02-01T00:07:56;4.10;99.90
19232;DHT22;9750;48.730;10.294;2023-02-01T00:10:23;4.20;99.90
19232;DHT22;9750;48.730;10.294;2023-02-01T00:12:50;4.10;99.90
19232;DHT22;9750;48.730;10.294;2023-02-01T00:15:18;4.20;99.90
19232;DHT22;9750;48.730;10.294;2023-02-01T00:17:46;4.20;99.90
19232;DHT22;9750;48.730;10.294;2023-02-01T00:20:15;4.20;99.90
19232;DHT22;9750;48.730;10.294;2023-02-01T00:22:42;4.20;99.90
19232;DHT22;9750;48.730;10.294;2023-02-01T00:25:10;4.20;99.90
19232;DHT22;9750;48.730;10.294;2023-02-01T00:27:37;4.10;99.90
19232;DHT22;9750;48.730;10.294;2023-02-01T00:30:05;4.10;99.90
19232;DHT22;9750;48.730;10.294;2023-02-01T00:32:33;4.10;99.90
19232;DHT22;9750;48.730;10.294;2023-02-01T00:35:00;4.20;99.90
19232;DHT22;9750;48.730;10.294;2023-02-01T00:37:29;4.20;99.90
19232;DHT22;9750;48.730;10.294;2023-02-01T00:39:56;4.20;99.90
19232;DHT22;9750;48.730;10.294;2023-02-01T00:42:23;4.10;99.90
19232;DHT22;9750;48.730;10.294;2023-02-01T00:44:50;4.10;99.90
19232;DHT22;9750;48.730;10.294;2023-02-01T00:47:18;4.20;99.90
19232;DHT22;9750;48.730;10.294;2023-02-01T00:49:45;4.20;99.90
19232;DHT22;9750;48.730;10.294;2023-02-01T00:52:12;4.10;99.90
19232;DHT22;9750;48.730;10.294;2023-02-01T00:54:41;4.20;99.90
19232;DHT22;9750;48.730;10.294;2023-02-01T00:57:08;4.20;99.90
19232;DHT22;9750;48.730;10.294;2023-02-01T00:59:36;4.20;99.90
19232;DHT22;9750;48.730;10.294;2023-02-01T01:02:03;4.20;99.90
19232;DHT22;9750;48.730;10.294;2023-02-01T01:04:30;4.30;99.90
19232;DHT22;9750;48.730;10.294;2023-02-01T01:06:57;4.30;99.90
19232;DHT22;9750;48.730;10.294;2023-02-01T01:09:25;4.30;99.90
19232;DHT22;9750;48.730;10.294;2023-02-01T01:11:53;4.30;99.90
19232;DHT22;9750;48.730;10.294;2023-02-01T01:14:21;4.30;99.90
19232;DHT22;9750;48.730;10.294;2023-02-01T01:16:48;4.30;99.90
19232;DHT22;9750;48.730;10.294;2023-02-01T01:19:16;4.20;99.90
19232;DHT22;9750;48.730;10.294;2023-02-01T01:21:43;4.20;99.90
19232;DHT22;9750;48.730;10.294;2023-02-01T01:24:10;4.20;99.90
19232;DHT22;9750;48.730;10.294;2023-02-01T01:26:37;4.30;99.90
19232;DHT22;9750;48.730;10.294;2023-02-01T01:29:08;4.20;99.90
19232;DHT22;9750;48.730;10.294;2023-02-01T01:31:36;4.20;99.90
19232;DHT22;9750;48.730;10.294;2023-02-01T01:34:03;4.20;99.90
19232;DHT22;9750;48.730;10.294;2023-02-01T01:36:30;4.20;99.90
19232;DHT22;9750;48.730;10.294;2023-02-01T01:38:58;4.20;99.90
19232;DHT22;9750;48.730;10.294;2023-02-01T01:41:28;4.20;99.90
19232;DHT22;9750;48.730;10.294;2023-02-01T01:43:58;4.20;99.90
19232;DHT22;9750;48.730;10.294;2023-02-01T01:46:29;4.20;99.90
19232;DHT22;9750;48.730;10.294;2023-02-01T01:49:03;4.20;99.90
19232;DHT22;9750;48.730;10.294;2023-02-01T01:51:35;4.20;99.90
19232;DHT22;9750;48.730;10.294;2023-02-01T01:54:09;4.20;99.90
19232;DHT22;9750;48.730;10.294;2023-02-01T01:56:39;4.20;99.90
19232;DHT22;9750;48.730;10.294;2023-02-01T01:59:08;4.30;99.90
19232;DHT22;9750;48.730;10.294;2023-02-01T02:01:37;4.30;99.90
19232;DHT22;9750;48.730;10.294;2023-02-01T02:04:05;4.30;99.90
19232;DHT22;9750;48.730;10.294;2023-02-01T02:06:45;4.30;99.90
19232;DHT22;9750;48.730;10.294;2023-02-01T02:09:15;4.30;99.90
19232;DHT22;9750;48.730;10.294;2023-02-01T02:11:42;4.20;99.90
19232;DHT22;9750;48.730;10.294;2023-02-01T02:14:12;4.30;99.90
19232;DHT22;9750;48.730;10.294;2023-02-01T02:26:35;4.30;99.90
19232;DHT22;9750;48.730;10.294;2023-02-01T02:29:50;4.30;99.90
19232;DHT22;9750;48.730;10.294;2023-02-01T02:35:29;4.30;99.90
19232;DHT22;9750;48.730;10.294;2023-02-01T02:38:05;4.30;99.90
19232;DHT22;9750;48.730;10.294;2023-02-01T02:40:42;4.30;99.90
19232;DHT22;9750;48.730;10.294;2023-02-01T02:43:19;4.30;99.90
19232;DHT22;9750;48.730;10.294;2023-02-01T02:46:12;4.30;99.90
19232;DHT22;9750;48.730;10.294;2023-02-01T02:49:04;4.30;99.90
19232;DHT22;9750;48.730;10.294;2023-02-01T02:51:37;4.30;99.90
19232;DHT22;9750;48.730;10.294;2023-02-01T02:54:28;4.30;99.90
19232;DHT22;9750;48.730;10.294;2023-02-01T02:57:20;4.30;99.90
19232;DHT22;9750;48.730;10.294;2023-02-01T03:00:08;4.30;99.90
19232;DHT22;9750;48.730;10.294;2023-02-01T03:02:53;4.30;99.90
19232;DHT22;9750;48.730;10.294;2023-02-01T03:05:41;4.40;99.90
19232;DHT22;9750;48.730;10.294;2023-02-01T03:08:13;4.40;99.90
19232;DHT22;9750;48.730;10.294;2023-02-01T03:10:47;4.40;99.90
19232;DHT22;9750;48.730;10.294;2023-02-01T03:13:20;4.40;99.90
19232;DHT22;9750;48.730;10.294;2023-02-01T03:15:53;4.40;99.90
19232;DHT22;9750;48.730;10.294;2023-02-01T03:18:28;4.40;99.90
19232;DHT22;9750;48.730;10.294;2023-02-01T03:20:58;4.40;99.90
19232;DHT22;9750;48.730;10.294;2023-02-01T03:23:33;4.50;99.90
19232;DHT22;9750;48.730;10.294;2023-02-01T03:26:03;4.50;99.90
19232;DHT22;9750;48.730;10.294;2023-02-01T03:28:33;4.50;99.90
19232;DHT22;9750;48.730;10.294;2023-02-01T03:31:01;4.50;99.90
19232;DHT22;9750;48.730;10.294;2023-02-01T03:33:29;4.50;99.90
19232;DHT22;9750;48.730;10.294;2023-02-01T03:36:03;4.40;99.90
19232;DHT22;9750;48.730;10.294;2023-02-01T03:38:38;4.50;99.90
19232;DHT22;9750;48.730;10.294;2023-02-01T03:41:12;4.40;99.90
19232;DHT22;9750;48.730;10.294;2023-02-01T03:43:49;4.40;99.90
19232;DHT22;9750;48.730;10.294;2023-02-01T03:46:22;4.40;99.90
19232;DHT22;9750;48.730;10.294;2023-02-01T03:48:51;4.40;99.90
19232;DHT22;9750;48.730;10.294;2023-02-01T03:51:20;4.40;99.90
19232;DHT22;9750;48.730;10.294;2023-02-01T03:53:50;4.40;99.90
19232;DHT22;9750;48.730;10.294;2023-02-01T03:56:20;4.40;99.90
19232;DHT22;9750;48.730;10.294;2023-02-01T03:58:48;4.40;99.90
19232;DHT22;9750;48.730;10.294;2023-02-01T04:01:26;4.40;99.90
19232;DHT22;9750;48.730;10.294;2023-02-01T04:03:54;4.40;99.90
19232;DHT22;9750;48.730;10.294;2023-02-01T04:09:44;4.40;99.90
19232;DHT22;9750;48.730;10.294;2023-02-01T04:12:12;4.40;99.90
19232;DHT22;9750;48.730;10.294;2023-02-01T04:14:39;4.50;99.90
19232;DHT22;9750;48.730;10.294;2023-02-01T04:17:06;4.50;99.90
19232;DHT22;9750;48.730;10.294;2023-02-01T04:19:34;4.40;99.90
19232;DHT22;9750;48.730;10.294;2023-02-01T04:22:01;4.50;99.90
19232;DHT22;9750;48.730;10.294;2023-02-01T04:24:28;4.50;99.90
19232;DHT22;9750;48.730;10.294;2023-02-01T04:26:57;4.40;99.90
19232;DHT22;9750;48.730;10.294;2023-02-01T04:29:24;4.40;99.90
19232;DHT22;9750;48.730;10.294;2023-02-01T04:31:51;4.50;99.90
19232;DHT22;9750;48.730;10.294;2023-02-01T04:34:19;4.50;99.90
19232;DHT22;9750;48.730;10.294;2023-02-01T04:36:48;4.50;99.90
19232;DHT22;9750;48.730;10.294;2023-02-01T04:39:25;4.50;99.90
19232;DHT22;9750;48.730;10.294;2023-02-01T04:41:52;4.40;99.90
19232;DHT22;9750;48.730;10.294;2023-02-01T04:44:21;4.50;99.90
19232;DHT22;9750;48.730;10.294;2023-02-01T04:46:48;4.50;99.90
19232;DHT22;9750;48.730;10.294;2023-02-01T04:49:15;4.40;99.90
19232;DHT22;9750;48.730;10.294;2023-02-01T04:51:43;4.40;99.90
19232;DHT22;9750;48.730;10.294;2023-02-01T04:54:10;4.50;99.90
19232;DHT22;9750;48.730;10.294;2023-02-01T04:56:38;4.50;99.90
19232;DHT22;9750;48.730;10.294;2023-02-01T04:59:06;4.50;99.90
19232;DHT22;9750;48.730;10.294;2023-02-01T05:01:34;4.50;99.90
19232;DHT22;9750;48.730;10.294;2023-02-01T05:04:02;4.50;99.90
19232;DHT22;9750;48.730;10.294;2023-02-01T05:06:29;4.50;99.90
19232;DHT22;9750;48.730;10.294;2023-02-01T05:08:56;4.40;99.90
19232;DHT22;9750;48.730;10.294;2023-02-01T05:11:24;4.40;99.90
19232;DHT22;9750;48.730;10.294;2023-02-01T05:14:08;4.50;99.90
19232;DHT22;9750;48.730;10.294;2023-02-01T05:16:37;4.40;99.90
19232;DHT22;9750;48.730;10.294;2023-02-01T05:19:04;4.40;99.90
19232;DHT22;9750;48.730;10.294;2023-02-01T05:21:31;4.50;99.90
19232;DHT22;9750;48.730;10.294;2023-02-01T05:23:59;4.50;99.90
19232;DHT22;9750;48.730;10.294;2023-02-01T05:26:42;4.50;99.90
19232;DHT22;9750;48.730;10.294;2023-02-01T05:29:10;4.50;99.90
19232;DHT22;9750;48.730;10.294;2023-02-01T05:31:39;4.50;99.90
19232;DHT22;9750;48.730;10.294;2023-02-01T05:34:07;4.60;99.90
19232;DHT22;9750;48.730;10.294;2023-02-01T05:36:34;4.50;99.90
19232;DHT22;9750;48.730;10.294;2023-02-01T05:39:01;4.60;99.90
19232;DHT22;9750;48.730;10.294;2023-02-01T05:41:29;4.60;99.90
19232;DHT22;9750;48.730;10.294;2023-02-01T05:47:12;4.60;99.90
19232;DHT22;9750;48.730;10.294;2023-02-01T05:49:39;4.60;99.90
19232;DHT22;9750;48.730;10.294;2023-02-01T05:52:06;4.60;99.90
19232;DHT22;9750;48.730;10.294;2023-02-01T05:54:34;4.60;99.90
19232;DHT22;9750;48.730;10.294;2023-02-01T05:57:01;4.60;99.90
19232;DHT22;9750;48.730;10.294;2023-02-01T05:59:28;4.60;99.90
19232;DHT22;9750;48.730;10.294;2023-02-01T06:01:56;4.60;99.90
19232;DHT22;9750;48.730;10.294;2023-02-01T06:04:25;4.60;99.90
19232;DHT22;9750;48.730;10.294;2023-02-01T06:06:52;4.60;99.90
19232;DHT22;9750;48.730;10.294;2023-02-01T06:09:19;4.60;99.90
19232;DHT22;9750;48.730;10.294;2023-02-01T06:11:46;4.70;99.90
19232;DHT22;9750;48.730;10.294;2023-02-01T06:14:14;4.70;99.90
19232;DHT22;9750;48.730;10.294;2023-02-01T06:16:41;4.70;99.90
19232;DHT22;9750;48.730;10.294;2023-02-01T06:19:08;4.70;99.90
19232;DHT22;9750;48.730;10.294;2023-02-01T06:21:37;4.70;99.90
19232;DHT22;9750;48.730;10.294;2023-02-01T06:24:05;4.70;99.90
19232;DHT22;9750;48.730;10.294;2023-02-01T06:26:32;4.70;99.90
19232;DHT22;9750;48.730;10.294;2023-02-01T06:28:59;4.70;99.90
19232;DHT22;9750;48.730;10.294;2023-02-01T06:31:27;4.70;99.90
19232;DHT22;9750;48.730;10.294;2023-02-01T06:33:54;4.70;99.90
19232;DHT22;9750;48.730;10.294;2023-02-01T06:36:21;4.70;99.90
19232;DHT22;9750;48.730;10.294;2023-02-01T06:38:50;4.70;99.90
19232;DHT22;9750;48.730;10.294;2023-02-01T06:41:17;4.70;99.90
19232;DHT22;9750;48.730;10.294;2023-02-01T06:43:46;4.70;99.90
19232;DHT22;9750;48.730;10.294;2023-02-01T06:46:13;4.70;99.90
19232;DHT22;9750;48.730;10.294;2023-02-01T06:48:41;4.70;99.90
19232;DHT22;9750;48.730;10.294;2023-02-01T06:51:19;4.80;99.90
19232;DHT22;9750;48.730;10.294;2023-02-01T06:53:47;4.80;99.90
19232;DHT22;9750;48.730;10.294;2023-02-01T06:56:15;4.80;99.90
19232;DHT22;9750;48.730;10.294;2023-02-01T06:58:43;4.80;99.90
19232;DHT22;9750;48.730;10.294;2023-02-01T07:01:11;4.80;99.90
19232;DHT22;9750;48.730;10.294;2023-02-01T07:03:39;4.80;99.90
19232;DHT22;9750;48.730;10.294;2023-02-01T07:06:07;4.80;99.90
19232;DHT22;9750;48.730;10.294;2023-02-01T07:08:36;4.80;99.90
19232;DHT22;9750;48.730;10.294;2023-02-01T07:11:05;4.80;99.90
19232;DHT22;9750;48.730;10.294;2023-02-01T07:13:35;4.80;99.90
19232;DHT22;9750;48.730;10.294;2023-02-01T07:16:03;4.70;99.90
19232;DHT22;9750;48.730;10.294;2023-02-01T07:18:31;4.70;99.90
19232;DHT22;9750;48.730;10.294;2023-02-01T07:20:59;4.80;99.90
19232;DHT22;9750;48.730;10.294;2023-02-01T07:23:27;4.80;99.90
19232;DHT22;9750;48.730;10.294;2023-02-01T07:25:55;4.80;99.90
19232;DHT22;9750;48.730;10.294;2023-02-01T07:28:22;4.80;99.90
19232;DHT22;9750;48.730;10.294;2023-02-01T07:30:52;4.80;99.90
19232;DHT22;9750;48.730;10.294;2023-02-01T07:33:19;4.80;99.90
19232;DHT22;9750;48.730;10.294;2023-02-01T07:35:47;4.80;99.90
19232;DHT22;9750;48.730;10.294;2023-02-01T07:38:15;4.70;99.90
19232;DHT22;9750;48.730;10.294;2023-02-01T07:40:43;4.70;99.90
19232;DHT22;9750;48.730;10.294;2023-02-01T07:43:10;4.70;99.90
19232;DHT22;9750;48.730;10.294;2023-02-01T07:46:04;4.70;99.90
19232;DHT22;9750;48.730;10.294;2023-02-01T07:48:32;4.70;99.90
19232;DHT22;9750;48.730;10.294;2023-02-01T07:51:02;4.60;99.90
19232;DHT22;9750;48.730;10.294;2023-02-01T07:53:31;4.70;99.90
19232;DHT22;9750;48.730;10.294;2023-02-01T07:55:59;4.70;99.90
19232;DHT22;9750;48.730;10.294;2023-02-01T07:58:27;4.70;99.90
19232;DHT22;9750;48.730;10.294;2023-02-01T08:00:54;4.70;99.90
19232;DHT22;9750;48.730;10.294;2023-02-01T08:03:41;4.70;99.90
19232;DHT22;9750;48.730;10.294;2023-02-01T08:06:08;4.70;99.90
19232;DHT22;9750;48.730;10.294;2023-02-01T08:08:35;4.70;99.90
19232;DHT22;9750;48.730;10.294;2023-02-01T08:11:04;4.70;99.90
19232;DHT22;9750;48.730;10.294;2023-02-01T08:13:33;4.60;99.90
19232;DHT22;9750;48.730;10.294;2023-02-01T08:16:00;4.60;99.90
19232;DHT22;9750;48.730;10.294;2023-02-01T08:18:28;4.60;99.90
19232;DHT22;9750;48.730;10.294;2023-02-01T08:21:02;4.60;99.90
19232;DHT22;9750;48.730;10.294;2023-02-01T08:23:29;4.60;99.90
19232;DHT22;9750;48.730;10.294;2023-02-01T08:26:08;4.60;99.90
19232;DHT22;9750;48.730;10.294;2023-02-01T08:31:57;4.70;99.90
19232;DHT22;9750;48.730;10.294;2023-02-01T08:34:25;4.70;99.90
19232;DHT22;9750;48.730;10.294;2023-02-01T08:36:54;4.70;99.90
19232;DHT22;9750;48.730;10.294;2023-02-01T08:39:24;4.70;99.90
19232;DHT22;9750;48.730;10.294;2023-02-01T08:41:54;4.80;99.90
19232;DHT22;9750;48.730;10.294;2023-02-01T08:44:35;4.80;99.90
19232;DHT22;9750;48.730;10.294;2023-02-01T08:47:03;4.80;99.90
19232;DHT22;9750;48.730;10.294;2023-02-01T08:49:30;4.80;99.90
19232;DHT22;9750;48.730;10.294;2023-02-01T08:51:59;4.70;99.90
19232;DHT22;9750;48.730;10.294;2023-02-01T08:54:26;4.70;99.90
19232;DHT22;9750;48.730;10.294;2023-02-01T08:56:53;4.70;99.90
19232;DHT22;9750;48.730;10.294;2023-02-01T08:59:22;4.60;99.90
19232;DHT22;9750;48.730;10.294;2023-02-01T09:01:49;4.60;99.90
19232;DHT22;9750;48.730;10.294;2023-02-01T09:04:16;4.60;99.90
19232;DHT22;9750;48.730;10.294;2023-02-01T09:06:43;4.60;99.90
19232;DHT22;9750;48.730;10.294;2023-02-01T09:09:12;4.60;99.90
19232;DHT22;9750;48.730;10.294;2023-02-01T09:11:39;4.60;99.90
19232;DHT22;9750;48.730;10.294;2023-02-01T09:14:06;4.60;99.90
19232;DHT22;9750;48.730;10.294;2023-02-01T09:16:34;4.60;99.90
19232;DHT22;9750;48.730;10.294;2023-02-01T09:19:01;4.60;99.90
19232;DHT22;9750;48.730;10.294;2023-02-01T09:21:28;4.60;99.90
19232;DHT22;9750;48.730;10.294;2023-02-01T09:23:56;4.70;99.90
19232;DHT22;9750;48.730;10.294;2023-02-01T09:26:24;4.70;99.90
19232;DHT22;9750;48.730;10.294;2023-02-01T09:28:52;4.80;99.90
19232;DHT22;9750;48.730;10.294;2023-02-01T09:31:19;4.80;99.90
19232;DHT22;9750;48.730;10.294;2023-02-01T09:33:46;4.80;99.90
19232;DHT22;9750;48.730;10.294;2023-02-01T09:36:14;4.80;99.90
19232;DHT22;9750;48.730;10.294;2023-02-01T09:38:41;4.90;99.90
19232;DHT22;9750;48.730;10.294;2023-02-01T09:41:26;4.90;99.90
19232;DHT22;9750;48.730;10.294;2023-02-01T09:44:04;5.00;99.90
19232;DHT22;9750;48.730;10.294;2023-02-01T09:46:34;5.10;99.90
19232;DHT22;9750;48.730;10.294;2023-02-01T09:49:04;5.10;99.90
19232;DHT22;9750;48.730;10.294;2023-02-01T09:51:35;5.20;99.90
19232;DHT22;9750;48.730;10.294;2023-02-01T09:54:06;5.30;99.90
19232;DHT22;9750;48.730;10.294;2023-02-01T09:56:41;5.20;99.90
19232;DHT22;9750;48.730;10.294;2023-02-01T09:59:19;5.10;99.90
19232;DHT22;9750;48.730;10.294;2023-02-01T10:01:49;5.20;99.90
19232;DHT22;9750;48.730;10.294;2023-02-01T10:04:17;5.20;99.90
19232;DHT22;9750;48.730;10.294;2023-02-01T10:06:57;5.20;99.90
19232;DHT22;9750;48.730;10.294;2023-02-01T10:09:54;5.30;99.90
19232;DHT22;9750;48.730;10.294;2023-02-01T10:13:01;5.40;99.90
19232;DHT22;9750;48.730;10.294;2023-02-01T10:15:43;5.30;99.90
19232;DHT22;9750;48.730;10.294;2023-02-01T10:18:35;5.40;99.90
19232;DHT22;9750;48.730;10.294;2023-02-01T10:21:12;5.40;99.90
19232;DHT22;9750;48.730;10.294;2023-02-01T10:23:58;5.40;99.90
19232;DHT22;9750;48.730;10.294;2023-02-01T10:26:33;5.40;99.90
19232;DHT22;9750;48.730;10.294;2023-02-01T10:29:03;5.30;99.90
19232;DHT22;9750;48.730;10.294;2023-02-01T10:31:35;5.30;99.90
19232;DHT22;9750;48.730;10.294;2023-02-01T10:34:13;5.20;99.90
19232;DHT22;9750;48.730;10.294;2023-02-01T10:36:50;5.10;99.90
19232;DHT22;9750;48.730;10.294;2023-02-01T10:39:20;5.10;99.90
19232;DHT22;9750;48.730;10.294;2023-02-01T10:41:48;5.10;99.90
19232;DHT22;9750;48.730;10.294;2023-02-01T10:44:19;5.10;99.90
19232;DHT22;9750;48.730;10.294;2023-02-01T10:46:48;5.20;99.90
19232;DHT22;9750;48.730;10.294;2023-02-01T10:49:18;5.20;99.90
19232;DHT22;9750;48.730;10.294;2023-02-01T10:51:50;5.30;99.90
19232;DHT22;9750;48.730;10.294;2023-02-01T10:54:19;5.40;99.90
19232;DHT22;9750;48.730;10.294;2023-02-01T10:59:56;5.40;99.90
19232;DHT22;9750;48.730;10.294;2023-02-01T11:02:29;5.30;99.90
19232;DHT22;9750;48.730;10.294;2023-02-01T11:05:01;5.40;99.90
19232;DHT22;9750;48.730;10.294;2023-02-01T11:07:30;5.30;99.90
19232;DHT22;9750;48.730;10.294;2023-02-01T11:09:58;5.30;99.90
19232;DHT22;9750;48.730;10.294;2023-02-01T11:12:29;5.40;99.90
19232;DHT22;9750;48.730;10.294;2023-02-01T11:15:02;5.50;99.90
19232;DHT22;9750;48.730;10.294;2023-02-01T11:17:34;5.50;99.90
19232;DHT22;9750;48.730;10.294;2023-02-01T11:20:04;5.50;99.90
19232;DHT22;9750;48.730;10.294;2023-02-01T11:22:33;5.60;99.90
19232;DHT22;9750;48.730;10.294;2023-02-01T11:25:01;5.50;99.90
19232;DHT22;9750;48.730;10.294;2023-02-01T11:27:34;5.50;99.90
19232;DHT22;9750;48.730;10.294;2023-02-01T11:30:04;5.40;99.90
19232;DHT22;9750;48.730;10.294;2023-02-01T11:32:31;5.40;99.90
19232;DHT22;9750;48.730;10.294;2023-02-01T11:35:01;5.40;99.90
19232;DHT22;9750;48.730;10.294;2023-02-01T11:37:31;5.40;99.90
19232;DHT22;9750;48.730;10.294;2023-02-01T11:40:02;5.40;99.90
19232;DHT22;9750;48.730;10.294;2023-02-01T11:42:30;5.40;99.90
19232;DHT22;9750;48.730;10.294;2023-02-01T11:45:18;5.40;99.90
19232;DHT22;9750;48.730;10.294;2023-02-01T11:47:46;5.50;99.80
19232;DHT22;9750;48.730;10.294;2023-02-01T11:50:33;5.60;99.90
19232;DHT22;9750;48.730;10.294;2023-02-01T11:53:18;5.60;99.60
19232;DHT22;9750;48.730;10.294;2023-02-01T11:55:58;5.50;99.30
19232;DHT22;9750;48.730;10.294;2023-02-01T11:58:45;5.50;99.40
19232;DHT22;9750;48.730;10.294;2023-02-01T12:01:33;5.50;99.40
19232;DHT22;9750;48.730;10.294;2023-02-01T12:04:24;5.40;99.60
19232;DHT22;9750;48.730;10.294;2023-02-01T12:07:02;5.40;99.70
19232;DHT22;9750;48.730;10.294;2023-02-01T12:09:41;5.40;99.60
19232;DHT22;9750;48.730;10.294;2023-02-01T12:12:18;5.40;99.60
19232;DHT22;9750;48.730;10.294;2023-02-01T12:14:59;5.40;99.60
19232;DHT22;9750;48.730;10.294;2023-02-01T12:17:51;5.40;99.30
19232;DHT22;9750;48.730;10.294;2023-02-01T12:20:36;5.40;99.40
19232;DHT22;9750;48.730;10.294;2023-02-01T12:23:18;5.40;99.40
19232;DHT22;9750;48.730;10.294;2023-02-01T12:26:06;5.40;99.50
19232;DHT22;9750;48.730;10.294;2023-02-01T12:29:03;5.40;99.40
19232;DHT22;9750;48.730;10.294;2023-02-01T12:31:46;5.40;99.10
19232;DHT22;9750;48.730;10.294;2023-02-01T12:34:38;5.40;99.10
19232;DHT22;9750;48.730;10.294;2023-02-01T12:37:16;5.40;99.00
19232;DHT22;9750;48.730;10.294;2023-02-01T12:39:50;5.50;99.00
19232;DHT22;9750;48.730;10.294;2023-02-01T12:42:26;5.50;99.10
19232;DHT22;9750;48.730;10.294;2023-02-01T12:44:56;5.50;98.80
19232;DHT22;9750;48.730;10.294;2023-02-01T12:47:31;5.50;98.60
19232;DHT22;9750;48.730;10.294;2023-02-01T12:50:04;5.50;98.70
19232;DHT22;9750;48.730;10.294;2023-02-01T12:52:36;5.50;98.80
19232;DHT22;9750;48.730;10.294;2023-02-01T12:55:15;5.50;99.00
19232;DHT22;9750;48.730;10.294;2023-02-01T12:57:46;5.50;98.70
19232;DHT22;9750;48.730;10.294;2023-02-01T13:00:20;5.50;98.60
19232;DHT22;9750;48.730;10.294;2023-02-01T13:02:54;5.50;98.60
19232;DHT22;9750;48.730;10.294;2023-02-01T13:05:29;5.60;98.60
19232;DHT22;9750;48.730;10.294;2023-02-01T13:08:02;5.50;98.50
19232;DHT22;9750;48.730;10.294;2023-02-01T13:10:33;5.50;98.60
19232;DHT22;9750;48.730;10.294;2023-02-01T13:13:08;5.50;98.80
19232;DHT22;9750;48.730;10.294;2023-02-01T13:15:39;5.50;98.40
19232;DHT22;9750;48.730;10.294;2023-02-01T13:18:14;5.50;98.70
19232;DHT22;9750;48.730;10.294;2023-02-01T13:20:49;5.50;98.80
19232;DHT22;9750;48.730;10.294;2023-02-01T13:23:24;5.50;98.10
19232;DHT22;9750;48.730;10.294;2023-02-01T13:25:53;5.50;98.20
19232;DHT22;9750;48.730;10.294;2023-02-01T13:28:25;5.40;98.10
19232;DHT22;9750;48.730;10.294;2023-02-01T13:31:06;5.50;98.00
19232;DHT22;9750;48.730;10.294;2023-02-01T13:33:52;5.40;98.00
19232;DHT22;9750;48.730;10.294;2023-02-01T13:36:44;5.40;98.10
19232;DHT22;9750;48.730;10.294;2023-02-01T13:39:42;5.50;98.50
19232;DHT22;9750;48.730;10.294;2023-02-01T13:42:16;5.50;98.20
19232;DHT22;9750;48.730;10.294;2023-02-01T13:44:47;5.60;98.10
19232;DHT22;9750;48.730;10.294;2023-02-01T13:50:38;5.60;97.80
19232;DHT22;9750;48.730;10.294;2023-02-01T13:53:16;5.60;97.90
19232;DHT22;9750;48.730;10.294;2023-02-01T13:55:45;5.50;97.90
19232;DHT22;9750;48.730;10.294;2023-02-01T13:58:19;5.60;98.00
19232;DHT22;9750;48.730;10.294;2023-02-01T14:00:48;5.60;97.80
19232;DHT22;9750;48.730;10.294;2023-02-01T14:03:21;5.60;97.90
19232;DHT22;9750;48.730;10.294;2023-02-01T14:05:59;5.60;97.80
19232;DHT22;9750;48.730;10.294;2023-02-01T14:08:40;5.60;97.80
19232;DHT22;9750;48.730;10.294;2023-02-01T14:11:31;5.70;97.80
19232;DHT22;9750;48.730;10.294;2023-02-01T14:23:30;5.60;98.00
19232;DHT22;9750;48.730;10.294;2023-02-01T14:28:58;5.40;98.40
19232;DHT22;9750;48.730;10.294;2023-02-01T14:34:28;5.50;98.70
19232;DHT22;9750;48.730;10.294;2023-02-01T14:36:58;5.60;98.50
19232;DHT22;9750;48.730;10.294;2023-02-01T14:39:30;5.60;98.50
19232;DHT22;9750;48.730;10.294;2023-02-01T14:42:03;5.60;98.60
19232;DHT22;9750;48.730;10.294;2023-02-01T14:44:36;5.50;98.60
19232;DHT22;9750;48.730;10.294;2023-02-01T14:49:58;5.50;98.60
19232;DHT22;9750;48.730;10.294;2023-02-01T14:52:32;5.50;98.60
19232;DHT22;9750;48.730;10.294;2023-02-01T14:55:04;5.40;98.50
19232;DHT22;9750;48.730;10.294;2023-02-01T14:57:36;5.50;98.50
19232;DHT22;9750;48.730;10.294;2023-02-01T15:00:14;5.50;98.50
19232;DHT22;9750;48.730;10.294;2023-02-01T15:02:43;5.50;98.60
19232;DHT22;9750;48.730;10.294;2023-02-01T15:05:24;5.50;98.30
19232;DHT22;9750;48.730;10.294;2023-02-01T15:07:52;5.50;98.20
19232;DHT22;9750;48.730;10.294;2023-02-01T15:10:21;5.50;98.10
19232;DHT22;9750;48.730;10.294;2023-02-01T15:12:50;5.40;98.10
19232;DHT22;9750;48.730;10.294;2023-02-01T15:15:21;5.40;98.30
19232;DHT22;9750;48.730;10.294;2023-02-01T15:17:51;5.40;98.50
19232;DHT22;9750;48.730;10.294;2023-02-01T15:20:20;5.30;98.60
19232;DHT22;9750;48.730;10.294;2023-02-01T15:22:58;5.30;98.60
19232;DHT22;9750;48.730;10.294;2023-02-01T15:25:27;5.20;98.60
19232;DHT22;9750;48.730;10.294;2023-02-01T15:27:57;5.20;98.70
19232;DHT22;9750;48.730;10.294;2023-02-01T15:30:26;5.20;98.80
19232;DHT22;9750;48.730;10.294;2023-02-01T15:33:05;5.30;98.50
19232;DHT22;9750;48.730;10.294;2023-02-01T15:35:39;5.20;98.50
19232;DHT22;9750;48.730;10.294;2023-02-01T15:38:36;5.20;98.60
19232;DHT22;9750;48.730;10.294;2023-02-01T15:41:14;5.20;98.60
19232;DHT22;9750;48.730;10.294;2023-02-01T15:43:45;5.20;98.70
19232;DHT22;9750;48.730;10.294;2023-02-01T15:46:17;5.10;98.70
19232;DHT22;9750;48.730;10.294;2023-02-01T15:48:49;5.10;98.70
19232;DHT22;9750;48.730;10.294;2023-02-01T15:51:19;5.10;98.80
19232;DHT22;9750;48.730;10.294;2023-02-01T15:53:51;5.00;98.80
19232;DHT22;9750;48.730;10.294;2023-02-01T15:59:30;5.00;98.60
19232;DHT22;9750;48.730;10.294;2023-02-01T16:01:58;5.00;98.60
19232;DHT22;9750;48.730;10.294;2023-02-01T16:04:27;5.00;98.80
19232;DHT22;9750;48.730;10.294;2023-02-01T16:06:57;5.00;98.70
19232;DHT22;9750;48.730;10.294;2023-02-01T16:09:36;5.00;98.70
19232;DHT22;9750;48.730;10.294;2023-02-01T16:12:22;5.00;98.70
19232;DHT22;9750;48.730;10.294;2023-02-01T16:14:52;5.00;98.60
19232;DHT22;9750;48.730;10.294;2023-02-01T16:17:19;5.00;98.70
19232;DHT22;9750;48.730;10.294;2023-02-01T16:19:46;5.00;98.50
19232;DHT22;9750;48.730;10.294;2023-02-01T16:22:14;5.00;98.50
19232;DHT22;9750;48.730;10.294;2023-02-01T16:24:43;4.90;98.40
19232;DHT22;9750;48.730;10.294;2023-02-01T16:27:10;4.90;98.60
19232;DHT22;9750;48.730;10.294;2023-02-01T16:29:37;4.80;98.60
19232;DHT22;9750;48.730;10.294;2023-02-01T16:32:08;4.80;98.60
19232;DHT22;9750;48.730;10.294;2023-02-01T16:34:38;4.80;98.60
19232;DHT22;9750;48.730;10.294;2023-02-01T16:37:06;4.80;98.40
19232;DHT22;9750;48.730;10.294;2023-02-01T16:39:36;4.80;98.50
19232;DHT22;9750;48.730;10.294;2023-02-01T16:42:10;4.80;98.60
19232;DHT22;9750;48.730;10.294;2023-02-01T16:44:38;4.90;98.60
19232;DHT22;9750;48.730;10.294;2023-02-01T16:47:12;4.90;98.80
19232;DHT22;9750;48.730;10.294;2023-02-01T16:49:42;4.90;98.50
19232;DHT22;9750;48.730;10.294;2023-02-01T16:52:14;4.90;98.60
19232;DHT22;9750;48.730;10.294;2023-02-01T16:54:42;4.90;98.60
19232;DHT22;9750;48.730;10.294;2023-02-01T17:00:33;4.80;98.70
19232;DHT22;9750;48.730;10.294;2023-02-01T17:03:04;4.80;98.80
19232;DHT22;9750;48.730;10.294;2023-02-01T17:05:32;4.80;98.90
19232;DHT22;9750;48.730;10.294;2023-02-01T17:08:02;4.80;98.90